createdAt,value
2022-12-14T00:03:35.551Z,85.07
2022-12-14T00:08:41.693Z,84.37
2022-12-14T00:13:44.149Z,84.76
2022-12-14T00:18:53.758Z,84.95
2022-12-14T00:23:58.069Z,85.12
2022-12-14T00:29:01.486Z,85.33
2022-12-14T00:34:05.205Z,85.12
2022-12-14T00:39:07.131Z,86.18
2022-12-14T00:44:09.067Z,85.71
2022-12-14T00:49:12.788Z,85.29
2022-12-14T00:54:14.737Z,85.31
2022-12-14T00:59:18.631Z,84.94
2022-12-14T01:04:24.631Z,84.77
2022-12-14T01:09:26.967Z,84.00
2022-12-14T01:14:28.906Z,85.84
2022-12-14T01:19:32.418Z,85.27
2022-12-14T01:24:34.360Z,84.83
2022-12-14T01:29:36.935Z,85.23
2022-12-14T01:34:40.212Z,85.99
2022-12-14T01:39:42.212Z,84.95
2022-12-14T01:44:54.479Z,84.07
2022-12-14T01:50:02.087Z,84.79
2022-12-14T01:55:07.544Z,85.46
2022-12-14T02:00:10.793Z,85.36
2022-12-14T02:05:15.967Z,84.65
2022-12-14T02:10:18.365Z,84.13
2022-12-14T02:15:20.403Z,83.27
2022-12-14T02:20:28.872Z,84.93
2022-12-14T02:26:10.070Z,83.97
2022-12-14T02:31:18.798Z,85.68
2022-12-14T02:36:30.409Z,85.22
2022-12-14T02:41:38.453Z,85.85
2022-12-14T02:46:50.655Z,85.64
2022-12-14T02:51:57.381Z,83.50
2022-12-14T02:57:20.425Z,84.05
2022-12-14T03:02:25.241Z,82.45
2022-12-14T03:07:34.360Z,84.24
2022-12-14T03:12:41.248Z,83.83
2022-12-14T03:17:49.288Z,85.04
2022-12-14T03:22:56.739Z,83.74
2022-12-14T03:28:05.225Z,84.38
2022-12-14T03:33:13.371Z,83.53
2022-12-14T03:38:22.668Z,82.90
2022-12-14T03:43:35.039Z,81.69
2022-12-14T03:48:43.519Z,81.15
2022-12-14T03:53:50.421Z,82.45
2022-12-14T03:59:01.678Z,82.83
2022-12-14T04:04:09.646Z,83.10
2022-12-14T04:09:22.585Z,83.69
2022-12-14T04:14:49.900Z,84.33
2022-12-14T04:20:00.501Z,83.74
2022-12-14T04:25:24.568Z,83.16
2022-12-14T04:30:28.259Z,84.89
2022-12-14T04:35:36.691Z,84.81
2022-12-14T04:40:43.584Z,83.54
2022-12-14T04:45:51.508Z,82.35
2022-12-14T04:51:03.171Z,83.92
2022-12-14T04:56:08.468Z,82.47
2022-12-14T05:01:26.378Z,82.10
2022-12-14T05:06:33.212Z,83.70
2022-12-14T05:11:57.467Z,83.43
2022-12-14T05:17:03.407Z,83.78
2022-12-14T05:22:09.858Z,83.44
2022-12-14T05:27:11.935Z,83.33
2022-12-14T05:32:13.950Z,84.43
2022-12-14T05:37:18.600Z,83.72
2022-12-14T05:42:20.631Z,83.49
2022-12-14T05:47:22.625Z,82.86
2022-12-14T05:52:26.724Z,83.83
2022-12-14T05:57:28.812Z,84.09
2022-12-14T06:02:30.862Z,83.42
2022-12-14T06:07:34.269Z,83.60
2022-12-14T06:12:36.209Z,84.24
2022-12-14T06:17:42.720Z,83.00
2022-12-14T06:22:47.860Z,83.64
2022-12-14T06:27:52.561Z,84.81
2022-12-14T06:32:54.501Z,84.87
2022-12-14T06:37:57.772Z,84.82
2022-12-14T06:42:59.717Z,84.67
2022-12-14T06:48:01.678Z,84.01
2022-12-14T06:53:04.946Z,83.47
2022-12-14T06:58:07.163Z,84.07
2022-12-14T07:03:10.016Z,82.89
2022-12-14T07:08:13.442Z,83.18
2022-12-14T07:13:15.724Z,82.30
2022-12-14T07:18:21.197Z,83.17
2022-12-14T07:23:27.921Z,82.39
2022-12-14T07:28:30.843Z,82.59
2022-12-14T07:33:32.829Z,81.60
2022-12-14T07:38:37.965Z,81.70
2022-12-14T07:43:40.714Z,81.35
2022-12-14T07:48:44.327Z,80.67
2022-12-14T07:53:48.557Z,81.53
2022-12-14T07:58:51.078Z,81.46
2022-12-14T08:03:54.891Z,80.40
2022-12-14T08:08:58.774Z,80.07
2022-12-14T08:14:02.825Z,80.30
2022-12-14T08:19:04.866Z,79.95
2022-12-14T08:24:10.379Z,81.28
2022-12-14T08:29:14.719Z,79.73
2022-12-14T08:34:22.559Z,81.20
2022-12-14T08:39:25.927Z,79.21
2022-12-14T08:44:27.877Z,81.52
2022-12-14T08:49:32.452Z,77.86
2022-12-14T08:54:36.122Z,78.12
2022-12-14T09:00:00.618Z,78.77
2022-12-14T09:05:00.077Z,79.46
2022-12-14T09:10:03.635Z,78.66
2022-12-14T09:15:06.518Z,79.32
2022-12-14T09:20:09.799Z,79.23
2022-12-14T09:25:13.119Z,80.19
2022-12-14T09:30:15.597Z,81.11
2022-12-14T09:35:17.896Z,78.32
2022-12-14T09:40:24.635Z,77.08
2022-12-14T09:45:34.036Z,78.72
2022-12-14T09:50:37.518Z,77.47
2022-12-14T09:55:43.259Z,77.71
2022-12-14T10:00:53.600Z,76.80
2022-12-14T10:06:09.332Z,74.12
2022-12-14T10:11:32.265Z,74.86
2022-12-14T10:16:48.523Z,75.96
2022-12-14T10:21:57.387Z,73.87
2022-12-14T10:27:03.034Z,77.04
2022-12-14T10:32:15.982Z,77.95
2022-12-14T10:37:25.688Z,75.94
2022-12-14T10:42:38.036Z,77.09
2022-12-14T10:47:42.845Z,77.34
2022-12-14T10:52:48.234Z,76.83
2022-12-14T10:57:53.227Z,78.23
2022-12-14T11:02:58.256Z,78.93
2022-12-14T11:08:00.637Z,78.73
2022-12-14T11:13:06.451Z,77.26
2022-12-14T11:18:24.231Z,73.69
2022-12-14T11:23:28.578Z,73.01
2022-12-14T11:28:37.526Z,74.00
2022-12-14T11:33:44.683Z,79.41
2022-12-14T11:38:57.305Z,74.85
2022-12-14T11:44:23.185Z,72.97
2022-12-14T11:49:27.683Z,71.60
2022-12-14T11:54:30.487Z,72.01
2022-12-14T11:59:39.498Z,71.15
2022-12-14T12:04:47.420Z,72.56
2022-12-14T12:09:51.882Z,74.49
2022-12-14T12:14:57.446Z,74.39
2022-12-14T12:20:00.103Z,73.20
2022-12-14T12:25:25.809Z,73.07
2022-12-14T12:30:34.214Z,79.89
2022-12-14T12:35:43.159Z,72.50
2022-12-14T12:40:54.982Z,76.67
2022-12-14T12:46:02.130Z,79.05
2022-12-14T12:51:09.949Z,78.72
2022-12-14T12:56:15.102Z,74.66
2022-12-14T13:01:28.078Z,79.79
2022-12-14T13:06:40.487Z,76.17
2022-12-14T13:11:42.808Z,73.77
2022-12-14T13:16:46.446Z,75.69
2022-12-14T13:21:50.790Z,75.17
2022-12-14T13:27:23.774Z,74.29
2022-12-14T13:32:40.842Z,74.81
2022-12-14T13:37:57.632Z,77.89
2022-12-14T13:43:14.465Z,77.91
2022-12-14T13:48:23.558Z,78.07
2022-12-14T13:53:31.666Z,77.85
2022-12-14T13:58:38.683Z,74.97
2022-12-14T14:03:46.274Z,74.00
2022-12-14T14:08:50.254Z,76.00
2022-12-14T14:14:17.757Z,76.14
2022-12-14T14:19:26.924Z,75.11
2022-12-14T14:24:29.878Z,75.10
2022-12-14T14:29:32.410Z,77.35
2022-12-14T14:34:47.601Z,75.65
2022-12-14T14:40:10.250Z,76.31
2022-12-14T14:45:30.899Z,76.31
2022-12-14T14:50:36.956Z,76.38
2022-12-14T14:55:53.782Z,75.27
2022-12-14T15:01:14.809Z,77.88
2022-12-14T15:06:23.719Z,76.07
2022-12-14T15:11:29.120Z,76.35
2022-12-14T15:16:33.544Z,77.41
2022-12-14T15:21:39.215Z,82.29
2022-12-14T15:26:41.804Z,78.04
2022-12-14T15:31:45.365Z,77.38
2022-12-14T15:36:49.801Z,77.55
2022-12-14T15:42:00.979Z,77.86
2022-12-14T15:47:03.078Z,79.69
2022-12-14T15:52:09.573Z,76.33
2022-12-14T15:57:17.587Z,77.00
2022-12-14T16:02:25.296Z,79.45
2022-12-14T16:07:36.323Z,80.95
2022-12-14T16:12:44.655Z,81.37
2022-12-14T16:17:47.908Z,83.08
2022-12-14T16:23:01.432Z,82.39
2022-12-14T16:28:21.923Z,82.92
2022-12-14T16:33:25.084Z,84.01
2022-12-14T16:38:29.487Z,84.46
2022-12-14T16:43:35.251Z,85.53
2022-12-14T16:48:40.970Z,85.39
2022-12-14T16:53:50.604Z,85.80
2022-12-14T16:58:55.324Z,86.67
2022-12-14T17:04:02.641Z,86.06
2022-12-14T17:09:06.656Z,85.92
2022-12-14T17:14:08.787Z,86.55
2022-12-14T17:19:18.741Z,86.71
2022-12-14T17:24:22.537Z,87.46
2022-12-14T17:29:27.492Z,86.91
2022-12-14T17:34:30.347Z,85.68
2022-12-14T17:39:35.638Z,86.12
2022-12-14T17:44:39.698Z,86.33
2022-12-14T17:49:43.120Z,86.46
2022-12-14T17:54:47.201Z,86.39
2022-12-14T18:00:10.302Z,87.35
2022-12-14T18:05:19.191Z,88.99
2022-12-14T18:10:22.926Z,86.87
2022-12-14T18:15:27.700Z,88.48
2022-12-14T18:20:30.240Z,86.95
2022-12-14T18:25:36.963Z,88.45
2022-12-14T18:30:49.025Z,87.83
2022-12-14T18:35:53.117Z,87.54
2022-12-14T18:40:58.673Z,87.69
2022-12-14T18:46:01.547Z,87.43
2022-12-14T18:51:04.334Z,87.04
2022-12-14T18:56:11.518Z,87.41
2022-12-14T19:01:16.245Z,88.67
2022-12-14T19:11:45.004Z,86.60
2022-12-14T19:16:47.103Z,87.06
2022-12-14T19:21:49.277Z,88.12
2022-12-14T19:26:53.136Z,86.93
2022-12-14T19:31:58.061Z,87.74
2022-12-14T19:37:03.985Z,87.23
2022-12-14T19:42:07.522Z,87.56
2022-12-14T19:47:09.937Z,88.93
2022-12-14T19:52:14.935Z,88.00
2022-12-14T19:57:18.521Z,86.76
2022-12-14T20:02:20.799Z,86.41
2022-12-14T20:07:23.378Z,87.42
2022-12-14T20:12:27.016Z,87.46
2022-12-14T20:17:29.421Z,86.84
2022-12-14T20:22:31.972Z,86.77
2022-12-14T20:27:40.456Z,87.36
2022-12-14T20:32:43.381Z,87.37
2022-12-14T20:37:53.044Z,86.46
2022-12-14T20:42:56.535Z,86.65
2022-12-14T20:47:58.696Z,87.35
2022-12-14T20:53:00.791Z,87.64
2022-12-14T20:58:04.400Z,87.32
2022-12-14T21:03:06.473Z,87.25
2022-12-14T21:08:09.697Z,88.17
2022-12-14T21:13:12.985Z,87.95
2022-12-14T21:18:14.929Z,86.39
2022-12-14T21:23:16.866Z,88.06
2022-12-14T21:28:20.117Z,87.21
2022-12-14T21:33:22.051Z,88.38
2022-12-14T21:38:24.215Z,88.29
2022-12-14T21:43:27.901Z,87.90
2022-12-14T21:48:30.086Z,87.20
2022-12-14T21:53:35.386Z,87.70
2022-12-14T21:58:38.996Z,88.25
2022-12-14T22:03:40.991Z,87.42
2022-12-14T22:08:43.000Z,87.99
2022-12-14T22:13:46.262Z,88.03
2022-12-14T22:18:48.212Z,87.53
2022-12-14T22:23:51.025Z,86.59
2022-12-14T22:28:54.417Z,89.15
2022-12-14T22:33:56.327Z,87.74
2022-12-14T22:38:59.712Z,86.78
2022-12-14T22:44:03.933Z,86.10
2022-12-14T22:49:05.965Z,87.80
2022-12-14T22:54:07.887Z,89.22
2022-12-14T22:59:16.056Z,87.47
2022-12-14T23:04:18.228Z,86.97
2022-12-14T23:09:38.769Z,87.49
2022-12-14T23:15:00.427Z,87.18
2022-12-14T23:20:20.917Z,87.48
2022-12-14T23:25:41.332Z,87.55
2022-12-14T23:31:03.220Z,88.02
2022-12-14T23:36:24.505Z,87.31
2022-12-14T23:41:45.314Z,87.18
2022-12-14T23:47:07.217Z,86.64
2022-12-14T23:52:27.727Z,87.11
2022-12-14T23:57:48.052Z,87.04
